sensor_id;sensor_type;location;lat;lon;timestamp;temperature;humidity
39675;DHT22;27790;50.840;4.386;2023-02-15T00:00:50;8.80;99.90
39675;DHT22;27790;50.840;4.386;2023-02-15T00:03:16;8.80;99.90
39675;DHT22;27790;50.840;4.386;2023-02-15T00:05:41;8.80;99.90
39675;DHT22;27790;50.840;4.386;2023-02-15T00:08:07;8.70;99.90
39675;DHT22;27790;50.840;4.386;2023-02-15T00:10:32;8.70;99.90
39675;DHT22;27790;50.840;4.386;2023-02-15T00:12:59;8.70;99.90
39675;DHT22;27790;50.840;4.386;2023-02-15T00:15:25;8.70;99.90
39675;DHT22;27790;50.840;4.386;2023-02-15T00:17:51;8.70;99.90
39675;DHT22;27790;50.840;4.386;2023-02-15T00:20:16;8.70;99.90
39675;DHT22;27790;50.840;4.386;2023-02-15T00:22:44;8.60;99.90
39675;DHT22;27790;50.840;4.386;2023-02-15T00:25:09;8.70;99.90
39675;DHT22;27790;50.840;4.386;2023-02-15T00:27:35;8.60;99.90
39675;DHT22;27790;50.840;4.386;2023-02-15T00:30:00;8.60;99.90
39675;DHT22;27790;50.840;4.386;2023-02-15T00:32:26;8.60;99.90
39675;DHT22;27790;50.840;4.386;2023-02-15T00:34:51;8.50;99.90
39675;DHT22;27790;50.840;4.386;2023-02-15T00:37:17;8.50;99.90
39675;DHT22;27790;50.840;4.386;2023-02-15T00:39:42;8.50;99.90
39675;DHT22;27790;50.840;4.386;2023-02-15T00:42:08;8.50;99.90
39675;DHT22;27790;50.840;4.386;2023-02-15T00:44:33;8.50;99.90
39675;DHT22;27790;50.840;4.386;2023-02-15T00:46:59;8.50;99.90
39675;DHT22;27790;50.840;4.386;2023-02-15T00:49:24;8.40;99.90
39675;DHT22;27790;50.840;4.386;2023-02-15T00:51:49;8.40;99.90
39675;DHT22;27790;50.840;4.386;2023-02-15T00:54:15;8.40;99.90
39675;DHT22;27790;50.840;4.386;2023-02-15T00:56:40;8.40;99.90
39675;DHT22;27790;50.840;4.386;2023-02-15T00:59:07;8.40;99.90
39675;DHT22;27790;50.840;4.386;2023-02-15T01:01:33;8.40;99.90
39675;DHT22;27790;50.840;4.386;2023-02-15T01:03:59;8.30;99.90
39675;DHT22;27790;50.840;4.386;2023-02-15T01:06:24;8.30;99.90
39675;DHT22;27790;50.840;4.386;2023-02-15T01:08:49;8.30;99.90
39675;DHT22;27790;50.840;4.386;2023-02-15T01:11:16;8.30;99.90
39675;DHT22;27790;50.840;4.386;2023-02-15T01:13:47;8.30;99.90
39675;DHT22;27790;50.840;4.386;2023-02-15T01:16:13;8.30;99.90
39675;DHT22;27790;50.840;4.386;2023-02-15T01:18:38;8.30;99.90
39675;DHT22;27790;50.840;4.386;2023-02-15T01:21:10;8.20;99.90
39675;DHT22;27790;50.840;4.386;2023-02-15T01:23:36;8.20;99.90
39675;DHT22;27790;50.840;4.386;2023-02-15T01:26:02;8.20;99.90
39675;DHT22;27790;50.840;4.386;2023-02-15T01:28:28;8.20;99.90
39675;DHT22;27790;50.840;4.386;2023-02-15T01:30:53;8.20;99.90
39675;DHT22;27790;50.840;4.386;2023-02-15T01:33:19;8.20;99.90
39675;DHT22;27790;50.840;4.386;2023-02-15T01:35:45;8.20;99.90
39675;DHT22;27790;50.840;4.386;2023-02-15T01:38:11;8.20;99.90
39675;DHT22;27790;50.840;4.386;2023-02-15T01:40:37;8.20;99.90
39675;DHT22;27790;50.840;4.386;2023-02-15T01:43:08;8.20;99.90
39675;DHT22;27790;50.840;4.386;2023-02-15T01:45:34;8.10;99.90
39675;DHT22;27790;50.840;4.386;2023-02-15T01:48:04;8.10;99.90
39675;DHT22;27790;50.840;4.386;2023-02-15T01:53:14;8.10;99.90
39675;DHT22;27790;50.840;4.386;2023-02-15T01:55:42;8.00;99.90
39675;DHT22;27790;50.840;4.386;2023-02-15T01:58:08;8.00;99.90
39675;DHT22;27790;50.840;4.386;2023-02-15T02:00:34;8.00;99.90
39675;DHT22;27790;50.840;4.386;2023-02-15T02:03:00;8.00;99.90
39675;DHT22;27790;50.840;4.386;2023-02-15T02:05:26;8.00;99.90
39675;DHT22;27790;50.840;4.386;2023-02-15T02:07:53;7.90;99.90
39675;DHT22;27790;50.840;4.386;2023-02-15T02:10:21;7.90;99.90
39675;DHT22;27790;50.840;4.386;2023-02-15T02:12:47;7.90;99.90
39675;DHT22;27790;50.840;4.386;2023-02-15T02:15:15;7.90;99.90
39675;DHT22;27790;50.840;4.386;2023-02-15T02:20:17;7.90;99.90
39675;DHT22;27790;50.840;4.386;2023-02-15T02:28:01;7.80;99.90
39675;DHT22;27790;50.840;4.386;2023-02-15T02:33:17;7.70;99.90
39675;DHT22;27790;50.840;4.386;2023-02-15T02:38:29;7.70;99.90
39675;DHT22;27790;50.840;4.386;2023-02-15T02:46:18;7.70;99.90
39675;DHT22;27790;50.840;4.386;2023-02-15T02:48:45;7.70;99.90
39675;DHT22;27790;50.840;4.386;2023-02-15T02:51:11;7.70;99.90
39675;DHT22;27790;50.840;4.386;2023-02-15T02:53:37;7.70;99.90
39675;DHT22;27790;50.840;4.386;2023-02-15T02:56:05;7.60;99.90
39675;DHT22;27790;50.840;4.386;2023-02-15T02:58:34;7.70;99.90
39675;DHT22;27790;50.840;4.386;2023-02-15T03:01:03;7.60;99.90
39675;DHT22;27790;50.840;4.386;2023-02-15T03:03:41;7.60;99.90
39675;DHT22;27790;50.840;4.386;2023-02-15T03:06:09;7.60;99.90
39675;DHT22;27790;50.840;4.386;2023-02-15T03:08:38;7.60;99.90
39675;DHT22;27790;50.840;4.386;2023-02-15T03:11:05;7.50;99.90
39675;DHT22;27790;50.840;4.386;2023-02-15T03:13:31;7.50;99.90
39675;DHT22;27790;50.840;4.386;2023-02-15T03:15:57;7.50;99.90
39675;DHT22;27790;50.840;4.386;2023-02-15T03:18:35;7.50;99.90
39675;DHT22;27790;50.840;4.386;2023-02-15T03:21:03;7.50;99.90
39675;DHT22;27790;50.840;4.386;2023-02-15T03:23:29;7.50;99.90
39675;DHT22;27790;50.840;4.386;2023-02-15T03:25:57;7.50;99.90
39675;DHT22;27790;50.840;4.386;2023-02-15T03:31:01;7.50;99.90
39675;DHT22;27790;50.840;4.386;2023-02-15T03:33:28;7.50;99.90
39675;DHT22;27790;50.840;4.386;2023-02-15T03:39:05;7.40;99.90
39675;DHT22;27790;50.840;4.386;2023-02-15T03:41:24;7.30;99.90
39675;DHT22;27790;50.840;4.386;2023-02-15T03:46:24;7.30;99.90
39675;DHT22;27790;50.840;4.386;2023-02-15T03:48:54;7.30;99.90
39675;DHT22;27790;50.840;4.386;2023-02-15T03:51:23;7.30;99.90
39675;DHT22;27790;50.840;4.386;2023-02-15T03:56:30;7.30;99.90
39675;DHT22;27790;50.840;4.386;2023-02-15T03:58:56;7.20;99.90
39675;DHT22;27790;50.840;4.386;2023-02-15T04:01:34;7.20;99.90
39675;DHT22;27790;50.840;4.386;2023-02-15T04:04:20;7.30;99.90
39675;DHT22;27790;50.840;4.386;2023-02-15T04:06:46;7.30;99.90
39675;DHT22;27790;50.840;4.386;2023-02-15T04:09:13;7.30;99.90
39675;DHT22;27790;50.840;4.386;2023-02-15T04:11:48;7.20;99.90
39675;DHT22;27790;50.840;4.386;2023-02-15T04:14:14;7.30;99.90
39675;DHT22;27790;50.840;4.386;2023-02-15T04:16:49;7.20;99.90
39675;DHT22;27790;50.840;4.386;2023-02-15T04:19:15;7.20;99.90
39675;DHT22;27790;50.840;4.386;2023-02-15T04:21:51;7.20;99.90
39675;DHT22;27790;50.840;4.386;2023-02-15T04:24:27;7.20;99.90
39675;DHT22;27790;50.840;4.386;2023-02-15T04:27:04;7.20;99.90
39675;DHT22;27790;50.840;4.386;2023-02-15T04:29:31;7.20;99.90
39675;DHT22;27790;50.840;4.386;2023-02-15T04:31:57;7.20;99.90
39675;DHT22;27790;50.840;4.386;2023-02-15T04:34:22;7.20;99.90
39675;DHT22;27790;50.840;4.386;2023-02-15T04:36:48;7.20;99.90
39675;DHT22;27790;50.840;4.386;2023-02-15T04:39:16;7.20;99.90
39675;DHT22;27790;50.840;4.386;2023-02-15T04:41:42;7.20;99.90
39675;DHT22;27790;50.840;4.386;2023-02-15T04:44:07;7.20;99.90
39675;DHT22;27790;50.840;4.386;2023-02-15T04:46:33;7.20;99.90
39675;DHT22;27790;50.840;4.386;2023-02-15T04:48:58;7.10;99.90
39675;DHT22;27790;50.840;4.386;2023-02-15T04:51:24;7.10;99.90
39675;DHT22;27790;50.840;4.386;2023-02-15T04:53:49;7.10;99.90
39675;DHT22;27790;50.840;4.386;2023-02-15T04:56:17;7.10;99.90
39675;DHT22;27790;50.840;4.386;2023-02-15T04:58:43;7.10;99.90
39675;DHT22;27790;50.840;4.386;2023-02-15T05:01:09;7.00;99.90
39675;DHT22;27790;50.840;4.386;2023-02-15T05:03:34;7.10;99.90
39675;DHT22;27790;50.840;4.386;2023-02-15T05:06:00;7.00;99.90
39675;DHT22;27790;50.840;4.386;2023-02-15T05:08:25;7.00;99.90
39675;DHT22;27790;50.840;4.386;2023-02-15T05:10:51;7.00;99.90
39675;DHT22;27790;50.840;4.386;2023-02-15T05:13:17;7.00;99.90
39675;DHT22;27790;50.840;4.386;2023-02-15T05:15:46;7.00;99.90
39675;DHT22;27790;50.840;4.386;2023-02-15T05:18:11;6.90;99.90
39675;DHT22;27790;50.840;4.386;2023-02-15T05:20:37;7.00;99.90
39675;DHT22;27790;50.840;4.386;2023-02-15T05:23:02;7.00;99.90
39675;DHT22;27790;50.840;4.386;2023-02-15T05:25:28;7.00;99.90
39675;DHT22;27790;50.840;4.386;2023-02-15T05:28:04;7.00;99.90
39675;DHT22;27790;50.840;4.386;2023-02-15T05:30:41;7.00;99.90
39675;DHT22;27790;50.840;4.386;2023-02-15T05:33:06;7.00;99.90
39675;DHT22;27790;50.840;4.386;2023-02-15T05:35:32;7.00;99.90
39675;DHT22;27790;50.840;4.386;2023-02-15T05:37:58;6.90;99.90
39675;DHT22;27790;50.840;4.386;2023-02-15T05:40:23;6.90;99.90
39675;DHT22;27790;50.840;4.386;2023-02-15T05:42:49;6.90;99.90
39675;DHT22;27790;50.840;4.386;2023-02-15T05:45:14;6.90;99.90
39675;DHT22;27790;50.840;4.386;2023-02-15T05:47:40;6.90;99.90
39675;DHT22;27790;50.840;4.386;2023-02-15T05:50:06;6.90;99.90
39675;DHT22;27790;50.840;4.386;2023-02-15T05:52:32;6.80;99.90
39675;DHT22;27790;50.840;4.386;2023-02-15T05:54:58;6.80;99.90
39675;DHT22;27790;50.840;4.386;2023-02-15T05:57:25;6.80;99.90
39675;DHT22;27790;50.840;4.386;2023-02-15T05:59:51;6.80;99.90
39675;DHT22;27790;50.840;4.386;2023-02-15T06:02:16;6.90;99.90
39675;DHT22;27790;50.840;4.386;2023-02-15T06:04:42;6.90;99.90
39675;DHT22;27790;50.840;4.386;2023-02-15T06:07:07;6.80;99.90
39675;DHT22;27790;50.840;4.386;2023-02-15T06:09:33;6.80;99.90
39675;DHT22;27790;50.840;4.386;2023-02-15T06:11:58;6.80;99.90
39675;DHT22;27790;50.840;4.386;2023-02-15T06:14:24;6.80;99.90
39675;DHT22;27790;50.840;4.386;2023-02-15T06:16:49;6.80;99.90
39675;DHT22;27790;50.840;4.386;2023-02-15T06:19:15;6.80;99.90
39675;DHT22;27790;50.840;4.386;2023-02-15T06:21:40;6.80;99.90
39675;DHT22;27790;50.840;4.386;2023-02-15T06:24:07;6.80;99.90
39675;DHT22;27790;50.840;4.386;2023-02-15T06:26:33;6.80;99.90
39675;DHT22;27790;50.840;4.386;2023-02-15T06:28:58;6.80;99.90
39675;DHT22;27790;50.840;4.386;2023-02-15T06:31:24;6.80;99.90
39675;DHT22;27790;50.840;4.386;2023-02-15T06:33:49;6.80;99.90
39675;DHT22;27790;50.840;4.386;2023-02-15T06:36:15;6.90;99.90
39675;DHT22;27790;50.840;4.386;2023-02-15T06:38:40;6.90;99.90
39675;DHT22;27790;50.840;4.386;2023-02-15T06:41:06;6.90;99.90
39675;DHT22;27790;50.840;4.386;2023-02-15T06:43:31;6.90;99.90
39675;DHT22;27790;50.840;4.386;2023-02-15T06:45:57;6.90;99.90
39675;DHT22;27790;50.840;4.386;2023-02-15T06:48:23;7.00;99.90
39675;DHT22;27790;50.840;4.386;2023-02-15T06:50:48;7.00;99.90
39675;DHT22;27790;50.840;4.386;2023-02-15T06:53:14;7.00;99.90
39675;DHT22;27790;50.840;4.386;2023-02-15T06:55:39;7.00;99.90
39675;DHT22;27790;50.840;4.386;2023-02-15T06:58:05;7.00;99.90
39675;DHT22;27790;50.840;4.386;2023-02-15T07:00:30;7.10;99.90
39675;DHT22;27790;50.840;4.386;2023-02-15T07:02:56;7.10;99.90
39675;DHT22;27790;50.840;4.386;2023-02-15T07:05:23;7.20;99.90
39675;DHT22;27790;50.840;4.386;2023-02-15T07:07:48;7.20;99.90
39675;DHT22;27790;50.840;4.386;2023-02-15T07:10:14;7.30;99.90
39675;DHT22;27790;50.840;4.386;2023-02-15T07:12:39;7.30;99.90
39675;DHT22;27790;50.840;4.386;2023-02-15T07:15:10;7.40;99.90
39675;DHT22;27790;50.840;4.386;2023-02-15T07:17:36;7.50;99.90
39675;DHT22;27790;50.840;4.386;2023-02-15T07:20:03;7.50;99.90
39675;DHT22;27790;50.840;4.386;2023-02-15T07:22:29;7.60;99.90
39675;DHT22;27790;50.840;4.386;2023-02-15T07:24:55;7.70;99.90
39675;DHT22;27790;50.840;4.386;2023-02-15T07:27:20;7.80;99.90
39675;DHT22;27790;50.840;4.386;2023-02-15T07:29:46;8.00;99.90
39675;DHT22;27790;50.840;4.386;2023-02-15T07:32:15;8.10;99.90
39675;DHT22;27790;50.840;4.386;2023-02-15T07:34:40;8.20;99.90
39675;DHT22;27790;50.840;4.386;2023-02-15T07:37:06;8.30;99.90
39675;DHT22;27790;50.840;4.386;2023-02-15T07:39:31;8.30;99.90
39675;DHT22;27790;50.840;4.386;2023-02-15T07:41:57;8.30;99.90
39675;DHT22;27790;50.840;4.386;2023-02-15T07:44:22;8.30;99.90
39675;DHT22;27790;50.840;4.386;2023-02-15T07:46:48;8.40;99.90
39675;DHT22;27790;50.840;4.386;2023-02-15T07:49:13;8.50;99.90
39675;DHT22;27790;50.840;4.386;2023-02-15T07:51:40;8.50;99.90
39675;DHT22;27790;50.840;4.386;2023-02-15T07:54:06;8.60;99.90
39675;DHT22;27790;50.840;4.386;2023-02-15T07:56:31;8.70;99.90
39675;DHT22;27790;50.840;4.386;2023-02-15T07:58:58;8.80;99.90
39675;DHT22;27790;50.840;4.386;2023-02-15T08:01:32;8.80;99.90
39675;DHT22;27790;50.840;4.386;2023-02-15T08:03:58;9.00;99.90
39675;DHT22;27790;50.840;4.386;2023-02-15T08:06:25;9.10;99.80
39675;DHT22;27790;50.840;4.386;2023-02-15T08:08:51;9.20;99.60
39675;DHT22;27790;50.840;4.386;2023-02-15T08:11:23;9.40;99.40
39675;DHT22;27790;50.840;4.386;2023-02-15T08:16:31;9.70;99.00
39675;DHT22;27790;50.840;4.386;2023-02-15T08:18:57;9.90;98.70
39675;DHT22;27790;50.840;4.386;2023-02-15T08:21:24;10.10;98.30
39675;DHT22;27790;50.840;4.386;2023-02-15T08:23:57;10.30;97.90
39675;DHT22;27790;50.840;4.386;2023-02-15T08:26:23;10.50;97.70
39675;DHT22;27790;50.840;4.386;2023-02-15T08:28:50;10.90;97.40
39675;DHT22;27790;50.840;4.386;2023-02-15T08:31:16;11.30;96.80
39675;DHT22;27790;50.840;4.386;2023-02-15T08:33:42;11.90;96.40
39675;DHT22;27790;50.840;4.386;2023-02-15T08:36:09;12.50;95.50
39675;DHT22;27790;50.840;4.386;2023-02-15T08:38:35;12.90;94.00
39675;DHT22;27790;50.840;4.386;2023-02-15T08:41:08;13.30;93.60
39675;DHT22;27790;50.840;4.386;2023-02-15T08:43:34;13.60;92.70
39675;DHT22;27790;50.840;4.386;2023-02-15T08:46:01;13.70;91.60
39675;DHT22;27790;50.840;4.386;2023-02-15T08:48:26;13.80;91.60
39675;DHT22;27790;50.840;4.386;2023-02-15T08:50:52;14.00;91.40
39675;DHT22;27790;50.840;4.386;2023-02-15T08:53:18;14.10;91.00
39675;DHT22;27790;50.840;4.386;2023-02-15T08:55:47;14.20;90.30
39675;DHT22;27790;50.840;4.386;2023-02-15T08:58:16;14.10;89.30
39675;DHT22;27790;50.840;4.386;2023-02-15T09:00:41;14.10;89.80
39675;DHT22;27790;50.840;4.386;2023-02-15T09:03:07;13.90;88.80
39675;DHT22;27790;50.840;4.386;2023-02-15T09:05:32;13.80;89.80
39675;DHT22;27790;50.840;4.386;2023-02-15T09:07:58;13.60;89.80
39675;DHT22;27790;50.840;4.386;2023-02-15T09:10:23;13.40;90.00
39675;DHT22;27790;50.840;4.386;2023-02-15T09:12:49;13.20;90.20
39675;DHT22;27790;50.840;4.386;2023-02-15T09:15:16;13.00;90.10
39675;DHT22;27790;50.840;4.386;2023-02-15T09:17:41;12.80;90.00
39675;DHT22;27790;50.840;4.386;2023-02-15T09:20:07;12.70;90.20
39675;DHT22;27790;50.840;4.386;2023-02-15T09:22:33;12.60;90.60
39675;DHT22;27790;50.840;4.386;2023-02-15T09:24:58;12.50;90.50
39675;DHT22;27790;50.840;4.386;2023-02-15T09:27:27;12.30;90.70
39675;DHT22;27790;50.840;4.386;2023-02-15T09:29:53;12.30;91.10
39675;DHT22;27790;50.840;4.386;2023-02-15T09:32:18;12.30;91.20
39675;DHT22;27790;50.840;4.386;2023-02-15T09:34:44;12.40;91.40
39675;DHT22;27790;50.840;4.386;2023-02-15T09:37:10;12.40;91.30
39675;DHT22;27790;50.840;4.386;2023-02-15T09:39:37;12.40;91.30
39675;DHT22;27790;50.840;4.386;2023-02-15T09:42:10;12.40;91.30
39675;DHT22;27790;50.840;4.386;2023-02-15T09:54:55;12.70;90.90
39675;DHT22;27790;50.840;4.386;2023-02-15T09:57:35;12.70;91.00
39675;DHT22;27790;50.840;4.386;2023-02-15T10:02:34;12.70;91.20
39675;DHT22;27790;50.840;4.386;2023-02-15T10:27:54;12.70;90.90
39675;DHT22;27790;50.840;4.386;2023-02-15T10:30:28;12.70;91.00
39675;DHT22;27790;50.840;4.386;2023-02-15T10:33:00;12.70;91.20
39675;DHT22;27790;50.840;4.386;2023-02-15T10:45:51;13.00;90.60
39675;DHT22;27790;50.840;4.386;2023-02-15T10:50:59;13.20;90.90
39675;DHT22;27790;50.840;4.386;2023-02-15T11:08:32;13.10;91.20
39675;DHT22;27790;50.840;4.386;2023-02-15T11:11:00;13.10;91.40
39675;DHT22;27790;50.840;4.386;2023-02-15T11:13:27;13.20;91.70
39675;DHT22;27790;50.840;4.386;2023-02-15T11:20:55;13.30;91.00
39675;DHT22;27790;50.840;4.386;2023-02-15T11:23:22;13.30;90.90
39675;DHT22;27790;50.840;4.386;2023-02-15T11:28:30;13.50;91.20
39675;DHT22;27790;50.840;4.386;2023-02-15T11:30:56;13.50;91.30
39675;DHT22;27790;50.840;4.386;2023-02-15T11:33:28;13.60;91.00
39675;DHT22;27790;50.840;4.386;2023-02-15T11:40:47;14.00;90.70
39675;DHT22;27790;50.840;4.386;2023-02-15T11:43:18;14.10;90.60
39675;DHT22;27790;50.840;4.386;2023-02-15T11:45:45;14.20;90.60
39675;DHT22;27790;50.840;4.386;2023-02-15T11:48:12;14.20;90.40
39675;DHT22;27790;50.840;4.386;2023-02-15T11:50:39;14.30;90.20
39675;DHT22;27790;50.840;4.386;2023-02-15T11:53:07;14.20;90.40
39675;DHT22;27790;50.840;4.386;2023-02-15T11:55:34;14.20;90.60
39675;DHT22;27790;50.840;4.386;2023-02-15T11:58:11;14.20;90.60
39675;DHT22;27790;50.840;4.386;2023-02-15T12:00:41;14.10;90.90
39675;DHT22;27790;50.840;4.386;2023-02-15T12:05:45;14.10;90.90
39675;DHT22;27790;50.840;4.386;2023-02-15T12:08:15;14.20;90.70
39675;DHT22;27790;50.840;4.386;2023-02-15T12:10:44;14.30;90.80
39675;DHT22;27790;50.840;4.386;2023-02-15T12:15:45;14.20;90.70
39675;DHT22;27790;50.840;4.386;2023-02-15T12:18:45;14.20;90.60
39675;DHT22;27790;50.840;4.386;2023-02-15T12:21:11;14.10;90.70
39675;DHT22;27790;50.840;4.386;2023-02-15T12:26:23;14.10;90.80
39675;DHT22;27790;50.840;4.386;2023-02-15T12:28:49;14.10;90.90
39675;DHT22;27790;50.840;4.386;2023-02-15T12:31:24;14.10;90.80
39675;DHT22;27790;50.840;4.386;2023-02-15T12:33:51;14.10;90.90
39675;DHT22;27790;50.840;4.386;2023-02-15T12:41:23;14.10;91.30
39675;DHT22;27790;50.840;4.386;2023-02-15T12:46:35;14.30;91.10
39675;DHT22;27790;50.840;4.386;2023-02-15T12:51:43;14.50;91.10
39675;DHT22;27790;50.840;4.386;2023-02-15T12:54:42;14.50;91.00
39675;DHT22;27790;50.840;4.386;2023-02-15T12:59:42;14.60;90.80
39675;DHT22;27790;50.840;4.386;2023-02-15T13:02:15;14.50;91.00
39675;DHT22;27790;50.840;4.386;2023-02-15T13:04:47;14.50;91.00
39675;DHT22;27790;50.840;4.386;2023-02-15T13:07:13;14.50;91.30
39675;DHT22;27790;50.840;4.386;2023-02-15T13:09:40;14.40;91.30
39675;DHT22;27790;50.840;4.386;2023-02-15T13:12:16;14.50;91.30
39675;DHT22;27790;50.840;4.386;2023-02-15T13:14:43;14.50;91.30
39675;DHT22;27790;50.840;4.386;2023-02-15T13:17:10;14.60;91.30
39675;DHT22;27790;50.840;4.386;2023-02-15T13:19:39;14.60;91.40
39675;DHT22;27790;50.840;4.386;2023-02-15T13:22:07;14.50;91.50
39675;DHT22;27790;50.840;4.386;2023-02-15T13:24:36;14.40;91.40
39675;DHT22;27790;50.840;4.386;2023-02-15T13:27:03;14.50;91.50
39675;DHT22;27790;50.840;4.386;2023-02-15T13:29:33;14.70;91.40
39675;DHT22;27790;50.840;4.386;2023-02-15T13:32:01;14.70;91.30
39675;DHT22;27790;50.840;4.386;2023-02-15T13:34:33;14.70;91.50
39675;DHT22;27790;50.840;4.386;2023-02-15T13:47:32;14.80;91.00
39675;DHT22;27790;50.840;4.386;2023-02-15T13:52:32;14.70;91.30
39675;DHT22;27790;50.840;4.386;2023-02-15T13:57:53;14.70;91.20
39675;DHT22;27790;50.840;4.386;2023-02-15T14:00:23;14.70;91.60
39675;DHT22;27790;50.840;4.386;2023-02-15T14:31:28;14.60;91.90
39675;DHT22;27790;50.840;4.386;2023-02-15T14:33:56;14.60;91.80
39675;DHT22;27790;50.840;4.386;2023-02-15T14:36:22;14.50;91.90
39675;DHT22;27790;50.840;4.386;2023-02-15T14:38:56;14.50;91.90
39675;DHT22;27790;50.840;4.386;2023-02-15T14:44:02;14.40;92.10
39675;DHT22;27790;50.840;4.386;2023-02-15T14:49:11;14.30;92.00
39675;DHT22;27790;50.840;4.386;2023-02-15T14:54:52;14.20;92.10
39675;DHT22;27790;50.840;4.386;2023-02-15T15:04:33;14.20;92.40
39675;DHT22;27790;50.840;4.386;2023-02-15T15:09:37;14.30;92.50
39675;DHT22;27790;50.840;4.386;2023-02-15T15:14:42;14.30;92.60
39675;DHT22;27790;50.840;4.386;2023-02-15T15:17:10;14.40;92.20
39675;DHT22;27790;50.840;4.386;2023-02-15T15:24:52;14.30;92.60
39675;DHT22;27790;50.840;4.386;2023-02-15T15:29:55;14.20;92.80
39675;DHT22;27790;50.840;4.386;2023-02-15T15:32:21;14.10;93.10
39675;DHT22;27790;50.840;4.386;2023-02-15T15:35:01;14.10;93.20
39675;DHT22;27790;50.840;4.386;2023-02-15T15:40:41;14.10;93.30
39675;DHT22;27790;50.840;4.386;2023-02-15T15:50:26;14.10;93.40
39675;DHT22;27790;50.840;4.386;2023-02-15T15:52:55;14.10;93.30
39675;DHT22;27790;50.840;4.386;2023-02-15T15:55:22;14.00;93.50
39675;DHT22;27790;50.840;4.386;2023-02-15T15:57:52;13.90;93.50
39675;DHT22;27790;50.840;4.386;2023-02-15T16:02:54;13.90;93.70
39675;DHT22;27790;50.840;4.386;2023-02-15T16:05:21;13.80;93.80
39675;DHT22;27790;50.840;4.386;2023-02-15T16:07:46;13.70;93.90
39675;DHT22;27790;50.840;4.386;2023-02-15T16:12:48;13.50;94.10
39675;DHT22;27790;50.840;4.386;2023-02-15T16:15:16;13.50;94.20
39675;DHT22;27790;50.840;4.386;2023-02-15T16:17:45;13.40;94.30
39675;DHT22;27790;50.840;4.386;2023-02-15T16:20:15;13.30;94.40
39675;DHT22;27790;50.840;4.386;2023-02-15T16:22:44;13.30;94.50
39675;DHT22;27790;50.840;4.386;2023-02-15T16:27:40;13.20;94.60
39675;DHT22;27790;50.840;4.386;2023-02-15T16:32:43;13.10;94.80
39675;DHT22;27790;50.840;4.386;2023-02-15T16:35:12;13.10;94.90
39675;DHT22;27790;50.840;4.386;2023-02-15T16:37:38;13.00;95.10
39675;DHT22;27790;50.840;4.386;2023-02-15T16:40:03;13.00;95.30
39675;DHT22;27790;50.840;4.386;2023-02-15T16:42:29;12.90;95.30
39675;DHT22;27790;50.840;4.386;2023-02-15T16:44:55;12.80;95.50
39675;DHT22;27790;50.840;4.386;2023-02-15T16:47:26;12.70;95.70
39675;DHT22;27790;50.840;4.386;2023-02-15T16:49:52;12.70;96.00
39675;DHT22;27790;50.840;4.386;2023-02-15T16:52:22;12.60;95.90
39675;DHT22;27790;50.840;4.386;2023-02-15T16:54:50;12.60;96.00
39675;DHT22;27790;50.840;4.386;2023-02-15T16:57:20;12.50;96.10
39675;DHT22;27790;50.840;4.386;2023-02-15T16:59:50;12.40;96.20
39675;DHT22;27790;50.840;4.386;2023-02-15T17:02:22;12.50;96.10
39675;DHT22;27790;50.840;4.386;2023-02-15T17:07:39;12.40;96.30
39675;DHT22;27790;50.840;4.386;2023-02-15T17:10:16;12.30;96.40
39675;DHT22;27790;50.840;4.386;2023-02-15T17:12:53;12.20;96.50
39675;DHT22;27790;50.840;4.386;2023-02-15T17:20:38;12.10;96.80
39675;DHT22;27790;50.840;4.386;2023-02-15T17:23:04;12.10;96.90
39675;DHT22;27790;50.840;4.386;2023-02-15T17:25:35;12.00;97.10
39675;DHT22;27790;50.840;4.386;2023-02-15T17:28:02;12.00;96.80
39675;DHT22;27790;50.840;4.386;2023-02-15T17:30:29;12.00;96.90
39675;DHT22;27790;50.840;4.386;2023-02-15T17:33:02;12.00;96.90
39675;DHT22;27790;50.840;4.386;2023-02-15T17:35:28;12.00;96.90
39675;DHT22;27790;50.840;4.386;2023-02-15T17:40:30;12.00;96.80
39675;DHT22;27790;50.840;4.386;2023-02-15T17:42:55;12.00;96.90
39675;DHT22;27790;50.840;4.386;2023-02-15T17:45:21;12.00;97.00
39675;DHT22;27790;50.840;4.386;2023-02-15T17:47:47;12.00;97.00
39675;DHT22;27790;50.840;4.386;2023-02-15T17:50:21;12.00;97.00
39675;DHT22;27790;50.840;4.386;2023-02-15T17:52:47;11.90;97.10
39675;DHT22;27790;50.840;4.386;2023-02-15T17:55:13;11.90;97.20
39675;DHT22;27790;50.840;4.386;2023-02-15T17:57:50;11.90;97.30
39675;DHT22;27790;50.840;4.386;2023-02-15T18:00:15;11.90;97.40
39675;DHT22;27790;50.840;4.386;2023-02-15T18:03:11;11.90;97.40
39675;DHT22;27790;50.840;4.386;2023-02-15T18:05:47;11.90;97.50
39675;DHT22;27790;50.840;4.386;2023-02-15T18:08:25;11.80;97.50
39675;DHT22;27790;50.840;4.386;2023-02-15T18:11:02;11.80;97.60
39675;DHT22;27790;50.840;4.386;2023-02-15T18:13:38;11.80;97.60
39675;DHT22;27790;50.840;4.386;2023-02-15T18:16:04;11.70;97.70
39675;DHT22;27790;50.840;4.386;2023-02-15T18:18:29;11.80;97.70
39675;DHT22;27790;50.840;4.386;2023-02-15T18:20:55;11.80;97.70
39675;DHT22;27790;50.840;4.386;2023-02-15T18:23:20;11.70;97.60
39675;DHT22;27790;50.840;4.386;2023-02-15T18:25:46;11.80;97.60
39675;DHT22;27790;50.840;4.386;2023-02-15T18:28:11;11.70;97.50
39675;DHT22;27790;50.840;4.386;2023-02-15T18:30:38;11.70;97.60
39675;DHT22;27790;50.840;4.386;2023-02-15T18:33:09;11.70;97.60
39675;DHT22;27790;50.840;4.386;2023-02-15T18:35:40;11.70;97.60
39675;DHT22;27790;50.840;4.386;2023-02-15T18:38:05;11.60;97.60
39675;DHT22;27790;50.840;4.386;2023-02-15T18:40:33;11.60;97.60
39675;DHT22;27790;50.840;4.386;2023-02-15T18:42:58;11.60;97.60
39675;DHT22;27790;50.840;4.386;2023-02-15T18:45:25;11.60;97.70
39675;DHT22;27790;50.840;4.386;2023-02-15T18:47:53;11.60;97.70
39675;DHT22;27790;50.840;4.386;2023-02-15T18:50:19;11.60;97.80
39675;DHT22;27790;50.840;4.386;2023-02-15T18:52:46;11.60;97.80
39675;DHT22;27790;50.840;4.386;2023-02-15T18:55:15;11.50;97.80
39675;DHT22;27790;50.840;4.386;2023-02-15T18:57:41;11.50;97.90
39675;DHT22;27790;50.840;4.386;2023-02-15T19:00:16;11.50;98.00
39675;DHT22;27790;50.840;4.386;2023-02-15T19:02:42;11.50;98.10
39675;DHT22;27790;50.840;4.386;2023-02-15T19:05:07;11.50;98.10
39675;DHT22;27790;50.840;4.386;2023-02-15T19:07:33;11.40;98.10
39675;DHT22;27790;50.840;4.386;2023-02-15T19:09:59;11.50;98.10
39675;DHT22;27790;50.840;4.386;2023-02-15T19:12:28;11.50;98.20
39675;DHT22;27790;50.840;4.386;2023-02-15T19:14:54;11.40;98.20
39675;DHT22;27790;50.840;4.386;2023-02-15T19:17:21;11.30;98.30
39675;DHT22;27790;50.840;4.386;2023-02-15T19:19:47;11.30;98.40
39675;DHT22;27790;50.840;4.386;2023-02-15T19:22:13;11.20;98.40
39675;DHT22;27790;50.840;4.386;2023-02-15T19:24:39;11.20;98.50
39675;DHT22;27790;50.840;4.386;2023-02-15T19:27:06;11.20;98.50
39675;DHT22;27790;50.840;4.386;2023-02-15T19:29:32;11.10;98.50
39675;DHT22;27790;50.840;4.386;2023-02-15T19:31:57;11.20;98.50
39675;DHT22;27790;50.840;4.386;2023-02-15T19:34:23;11.10;98.60
39675;DHT22;27790;50.840;4.386;2023-02-15T19:36:52;11.10;98.50